Página principal
METAR-TAF:

METAR-TAF

Aeroportos :

Aeroporto Internacional Netaji Subhas Chandra Bose

Calcutá, Índia

latitude: 22-39N, longitude: 088-27E, altura: 4 m

Observação actual do tempo

O boletim foi feito há 34 minutos, às 15:00 UTC
Vento 3 kt de su-sudoeste
Temperatura 21°C
Humidade 64%
Pressão 1010 hPa
Visibilidade: 3200 m
bruma

METAR: VECC 171500Z 20003KT 3200 HZ NSC 21/14 Q1010 NOSIG

Hora: 21:04 (15:34 UTC)

Previsão

O boletim foi feito há 1 hora e 34 minutos, às 14:00 UTC
Previsão válida de 17 às 15 UTC a 17 às 24 UTC
Vento 5 kt de norte
Visibilidade: 3500 m
bruma
Tornando-se
de 17 às 20 UTC a 17 às 22 UTC
Vento kt de norte
Visibilidade: 2200 m
neblina

TAF: VECC 171400Z 1715/1724 35005KT 3500 HZ NSC BECMG 1720/1722 00000KT 2200 BR

Observações e previsões do tempo de mais de 4000 aeroportos (mensagens METAR e TAF).

As estações disponíveis são os pontos amarelos e vermelhos sobre o mapa.

Mova o rato sobre o mapa para ver o nome da estação.

Depois clique no ponto para visualizar as observações e previsões meteorológicas.

Para alterar o mapa : clique nos botões verdes com uma cruz preta para aumentar o zoom; no botão verde com uma pitada de zoom; ou nas setas verdes para mapas adjacentes.


METAR-TAF: